createdAt,value
2023-02-19T00:02:59.954Z,85.02
2023-02-19T00:14:27.018Z,85.19
2023-02-19T00:25:51.864Z,85.29
2023-02-19T00:37:16.680Z,85.06
2023-02-19T00:48:41.713Z,85.63
2023-02-19T01:00:06.504Z,85.81
2023-02-19T01:11:31.306Z,85.82
2023-02-19T01:22:45.076Z,85.32
2023-02-19T01:34:09.895Z,85.07
2023-02-19T01:45:33.025Z,85.51
2023-02-19T01:56:57.727Z,86.09
2023-02-19T02:08:21.267Z,85.82
2023-02-19T02:19:54.850Z,85.54
2023-02-19T02:31:29.712Z,85.80
2023-02-19T02:42:56.187Z,85.76
2023-02-19T02:54:41.056Z,86.03
2023-02-19T03:06:13.041Z,86.93
2023-02-19T03:17:36.229Z,87.29
2023-02-19T03:28:59.623Z,88.47
2023-02-19T03:40:25.640Z,88.30
2023-02-19T03:52:02.862Z,87.97
2023-02-19T04:03:29.153Z,87.95
2023-02-19T04:14:59.445Z,88.04
2023-02-19T04:26:24.161Z,87.52
2023-02-19T04:37:37.658Z,87.53
2023-02-19T04:48:51.474Z,88.00
2023-02-19T04:59:57.891Z,87.61
2023-02-19T05:11:22.684Z,87.51
2023-02-19T05:22:36.301Z,87.31
2023-02-19T05:33:54.417Z,86.70
2023-02-19T05:45:11.247Z,87.17
2023-02-19T05:56:36.073Z,87.47
2023-02-19T06:07:44.189Z,87.70
2023-02-19T06:18:57.850Z,87.09
2023-02-19T06:29:47.976Z,86.18
2023-02-19T06:41:13.191Z,86.57
2023-02-19T06:52:20.942Z,86.99
2023-02-19T07:03:46.582Z,87.39
2023-02-19T07:14:58.900Z,87.27
2023-02-19T07:26:04.093Z,87.77
2023-02-19T07:37:28.064Z,87.30
2023-02-19T07:48:43.018Z,86.74
2023-02-19T08:00:07.904Z,86.87
2023-02-19T08:11:31.497Z,86.38
2023-02-19T08:22:56.725Z,86.62
2023-02-19T08:34:21.692Z,85.79
2023-02-19T08:45:47.298Z,86.10
2023-02-19T08:57:06.334Z,86.38
2023-02-19T09:08:16.746Z,86.49
2023-02-19T09:19:34.547Z,85.64
2023-02-19T09:30:49.710Z,85.20
2023-02-19T09:42:13.504Z,84.42
2023-02-19T09:53:39.116Z,84.17
2023-02-19T10:04:45.808Z,84.22
2023-02-19T10:16:11.047Z,83.48
2023-02-19T10:27:29.227Z,83.41
2023-02-19T10:38:37.981Z,83.01
2023-02-19T10:50:16.808Z,82.92
2023-02-19T11:01:35.263Z,83.19
2023-02-19T11:12:01.478Z,83.80
2023-02-19T11:23:36.011Z,83.72
2023-02-19T11:35:16.282Z,84.08
2023-02-19T11:46:54.211Z,84.30
2023-02-19T11:58:36.105Z,83.58
2023-02-19T12:10:29.058Z,83.78
2023-02-19T12:22:09.943Z,83.10
2023-02-19T12:33:40.768Z,82.87
2023-02-19T12:45:19.640Z,83.26
2023-02-19T12:56:35.145Z,83.53
2023-02-19T13:08:15.953Z,83.38
2023-02-19T13:19:46.905Z,84.11
2023-02-19T13:31:11.028Z,83.81
2023-02-19T13:41:32.898Z,84.32
2023-02-19T13:52:34.340Z,83.78
2023-02-19T14:04:09.704Z,83.12
2023-02-19T14:15:35.421Z,82.81
2023-02-19T14:27:06.955Z,82.58
2023-02-19T14:38:41.285Z,82.43
2023-02-19T14:50:21.187Z,81.99
2023-02-19T15:01:53.394Z,82.39
2023-02-19T15:13:09.429Z,82.70
2023-02-19T15:24:28.303Z,82.21
2023-02-19T15:35:47.373Z,81.89
2023-02-19T15:47:11.717Z,81.39
2023-02-19T15:58:32.598Z,80.65
2023-02-19T16:09:41.474Z,80.14
2023-02-19T16:21:00.904Z,80.49
2023-02-19T16:32:30.916Z,81.19
2023-02-19T16:44:09.205Z,81.46
2023-02-19T16:55:37.107Z,81.07
2023-02-19T17:06:50.970Z,81.26
2023-02-19T17:18:10.346Z,80.84
2023-02-19T17:29:29.148Z,80.72
2023-02-19T17:41:05.854Z,80.80
2023-02-19T17:52:35.105Z,80.84
2023-02-19T18:03:29.665Z,80.75
2023-02-19T18:14:51.980Z,80.77
2023-02-19T18:26:20.742Z,80.47
2023-02-19T18:37:38.732Z,80.57
2023-02-19T18:48:54.226Z,79.56
2023-02-19T19:00:14.420Z,80.23
2023-02-19T19:11:43.120Z,79.54
2023-02-19T19:23:11.874Z,79.46
2023-02-19T19:34:32.960Z,78.47
2023-02-19T19:46:00.726Z,78.23
2023-02-19T19:57:18.815Z,78.56
2023-02-19T20:08:49.938Z,78.26
2023-02-19T20:20:19.074Z,78.14
2023-02-19T20:31:47.645Z,77.81
2023-02-19T20:43:07.314Z,77.35
2023-02-19T20:53:53.331Z,77.35
2023-02-19T21:05:12.501Z,77.15
2023-02-19T21:16:23.734Z,76.91
2023-02-19T21:27:50.881Z,76.58
2023-02-19T21:39:07.036Z,77.17
2023-02-19T21:50:18.328Z,77.28
2023-02-19T22:01:34.123Z,77.91
2023-02-19T22:13:00.835Z,78.79
2023-02-19T22:24:26.136Z,79.18
2023-02-19T22:35:40.059Z,79.42
2023-02-19T22:46:58.135Z,79.48
2023-02-19T22:58:23.106Z,78.68
2023-02-19T23:09:55.254Z,78.48
2023-02-19T23:21:20.169Z,77.48
2023-02-19T23:32:45.397Z,77.36
2023-02-19T23:44:10.408Z,76.88
2023-02-19T23:55:35.630Z,77.27
